Time;durP1;ratioP1;P1;durP2;ratioP2;P2;SDS_P1;SDS_P2;PMS_P1;PMS_P2;Temp;Humidity;BMP_temperature;BMP_pressure;BME280_temperature;BME280_humidity;BME280_pressure;Samples;Min_cycle;Max_cycle;Signal;HPM_P1;HPM_P2
2021/09/24 02:47:03;;;;;;;5.88;4.45;;;18.50;78.60;;;;;;4990328;24;20071;-81
2021/09/24 02:49:28;;;;;;;8.13;4.93;;;18.40;78.70;;;;;;4760907;30;20051;-80
2021/09/24 02:51:54;;;;;;;6.57;4.82;;;18.40;78.70;;;;;;4734054;30;20028;-80
2021/09/24 02:54:20;;;;;;;8.82;4.25;;;18.40;78.70;;;;;;4733441;30;20042;-80
2021/09/24 02:56:46;;;;;;;8.23;4.38;;;18.40;79.10;;;;;;4748410;30;20039;-81
2021/09/24 02:59:11;;;;;;;8.75;5.25;;;18.40;78.80;;;;;;4748191;30;20075;-81
2021/09/24 03:01:38;;;;;;;12.20;4.93;;;18.50;78.80;;;;;;4748019;30;20035;-80
2021/09/24 03:04:04;;;;;;;6.95;5.00;;;18.40;79.20;;;;;;4733344;30;20130;-81
2021/09/24 03:06:29;;;;;;;16.15;5.43;;;18.40;79.30;;;;;;4733243;30;20020;-80
2021/09/24 03:08:55;;;;;;;11.27;4.70;;;18.40;79.30;;;;;;4748100;30;20517;-81
2021/09/24 03:11:21;;;;;;;10.30;4.85;;;18.40;79.50;;;;;;4733228;30;20297;-81
2021/09/24 03:13:46;;;;;;;7.65;4.55;;;18.40;79.50;;;;;;4747536;30;20215;-81
2021/09/24 03:16:18;;;;;;;8.10;4.90;;;18.30;79.60;;;;;;4737152;30;20038;-81
2021/09/24 03:18:43;;;;;;;7.45;4.40;;;18.40;79.70;;;;;;4765972;30;20042;-80
2021/09/24 03:21:09;;;;;;;7.45;4.65;;;18.30;79.90;;;;;;4766024;30;20032;-81
2021/09/24 03:23:35;;;;;;;11.20;5.60;;;18.40;79.90;;;;;;4751283;30;20036;-81
2021/09/24 03:26:01;;;;;;;8.23;5.13;;;18.30;80.10;;;;;;4751065;30;20059;-81
2021/09/24 03:28:26;;;;;;;12.27;5.65;;;18.30;80.10;;;;;;4778211;30;20039;-81
2021/09/24 03:30:52;;;;;;;10.60;5.00;;;18.30;80.40;;;;;;4769075;30;20039;-80
2021/09/24 03:33:18;;;;;;;6.72;4.90;;;18.20;80.30;;;;;;4772577;30;20031;-80
2021/09/24 03:35:44;;;;;;;7.25;5.35;;;18.20;80.30;;;;;;4787424;30;20039;-80
2021/09/24 03:38:10;;;;;;;9.27;5.13;;;18.20;80.70;;;;;;4787321;30;20015;-80
2021/09/24 03:40:35;;;;;;;5.57;4.68;;;18.20;80.40;;;;;;4787391;30;20027;-81
2021/09/24 03:43:01;;;;;;;6.88;5.10;;;18.30;80.50;;;;;;4772218;30;20023;-81
2021/09/24 03:45:28;;;;;;;10.20;6.03;;;18.30;80.60;;;;;;4769288;30;20353;-81
2021/09/24 03:47:54;;;;;;;8.00;5.18;;;18.20;80.40;;;;;;4752316;30;20039;-80
2021/09/24 03:50:20;;;;;;;6.85;4.82;;;18.20;80.40;;;;;;4736569;30;20050;-80
2021/09/24 03:52:46;;;;;;;10.07;5.35;;;18.30;80.30;;;;;;4736565;30;20100;-81
2021/09/24 03:55:11;;;;;;;11.60;5.25;;;18.40;80.00;;;;;;4736296;30;20047;-80
2021/09/24 03:57:37;;;;;;;11.63;5.13;;;18.40;80.00;;;;;;4750569;30;20331;-81
2021/09/24 04:00:04;;;;;;;9.52;5.68;;;18.40;80.00;;;;;;4735926;30;20039;-81
2021/09/24 04:02:37;;;;;;;8.15;4.88;;;18.40;80.00;;;;;;4752262;30;20066;-80
2021/09/24 04:05:03;;;;;;;6.05;5.00;;;18.40;79.90;;;;;;4736202;30;20040;-81
2021/09/24 04:07:29;;;;;;;9.05;4.90;;;18.40;79.80;;;;;;4736174;30;20024;-80
2021/09/24 04:09:55;;;;;;;16.05;5.53;;;18.40;79.70;;;;;;4750950;30;20103;-81
2021/09/24 04:12:21;;;;;;;9.32;4.70;;;18.40;80.10;;;;;;4767399;30;20036;-81
2021/09/24 04:14:47;;;;;;;12.35;5.63;;;18.40;80.00;;;;;;4735886;30;20047;-81
2021/09/24 04:17:12;;;;;;;9.57;5.70;;;18.40;80.20;;;;;;4735643;30;20036;-81
2021/09/24 04:19:38;;;;;;;7.13;5.05;;;18.40;80.10;;;;;;4735997;30;20029;-81
2021/09/24 04:22:04;;;;;;;10.13;5.28;;;18.40;80.10;;;;;;4735894;30;20032;-81
2021/09/24 04:24:30;;;;;;;10.68;5.63;;;18.50;80.10;;;;;;4735993;30;20040;-81
2021/09/24 04:26:56;;;;;;;8.10;5.20;;;18.40;79.70;;;;;;4765890;30;20099;-81
2021/09/24 04:29:22;;;;;;;8.07;5.13;;;18.50;79.70;;;;;;4750316;30;20103;-81
2021/09/24 04:31:47;;;;;;;7.03;5.15;;;18.40;80.00;;;;;;4750137;30;20370;-81
2021/09/24 04:34:13;;;;;;;13.00;5.68;;;18.40;80.10;;;;;;4750261;30;20055;-81
2021/09/24 04:36:39;;;;;;;8.00;5.35;;;18.40;80.60;;;;;;4750098;30;20099;-81
2021/09/24 04:39:05;;;;;;;8.50;5.80;;;18.40;80.40;;;;;;4750351;30;20271;-81
2021/09/24 04:41:31;;;;;;;10.82;5.15;;;18.40;80.40;;;;;;4735613;30;20241;-81
2021/09/24 04:43:56;;;;;;;7.55;5.90;;;18.40;80.10;;;;;;4749393;30;20107;-81
2021/09/24 04:46:22;;;;;;;10.40;6.20;;;18.40;80.30;;;;;;4749654;30;20366;-81
2021/09/24 04:48:48;;;;;;;10.45;6.05;;;18.40;80.20;;;;;;4735291;30;20063;-81
2021/09/24 04:51:14;;;;;;;10.00;5.78;;;18.40;80.60;;;;;;4735457;30;20043;-81
2021/09/24 04:53:39;;;;;;;8.73;5.88;;;18.50;79.70;;;;;;4743330;30;20179;-81
2021/09/24 04:56:05;;;;;;;13.25;6.07;;;18.40;80.10;;;;;;4764347;30;20051;-81
2021/09/24 04:58:31;;;;;;;8.23;5.55;;;18.50;80.10;;;;;;4749672;30;20092;-81
2021/09/24 05:00:57;;;;;;;9.55;5.38;;;18.50;80.60;;;;;;4750022;30;20039;-81
2021/09/24 05:03:23;;;;;;;8.88;5.00;;;18.50;80.10;;;;;;4749581;30;20028;-81
2021/09/24 05:05:48;;;;;;;9.30;5.65;;;18.40;80.00;;;;;;4764183;30;20036;-81
2021/09/24 05:08:14;;;;;;;9.73;5.28;;;18.50;80.10;;;;;;4749539;30;20039;-81
2021/09/24 05:10:40;;;;;;;6.90;4.93;;;18.50;79.90;;;;;;4750063;30;20040;-81
2021/09/24 05:13:06;;;;;;;13.27;5.45;;;18.50;79.90;;;;;;4749513;30;20402;-81
2021/09/24 05:15:33;;;;;;;7.43;5.45;;;18.50;79.90;;;;;;4749535;30;20035;-81
2021/09/24 05:17:59;;;;;;;16.85;5.57;;;18.50;80.10;;;;;;4764092;30;20051;-81
2021/09/24 05:20:26;;;;;;;9.00;5.85;;;18.50;79.80;;;;;;4749519;30;20036;-81
2021/09/24 05:22:56;;;;;;;6.27;5.00;;;18.50;80.30;;;;;;4764559;30;20036;-81
2021/09/24 05:25:22;;;;;;;8.00;5.95;;;18.50;80.00;;;;;;4764386;30;20278;-81
2021/09/24 05:27:49;;;;;;;7.50;4.65;;;18.50;79.70;;;;;;4752978;30;20336;-81
2021/09/24 05:30:15;;;;;;;10.48;5.53;;;18.50;79.70;;;;;;4734586;30;20028;-81
2021/09/24 05:32:42;;;;;;;9.03;5.50;;;18.50;79.50;;;;;;4734372;30;20123;-81
2021/09/24 05:35:09;;;;;;;11.43;6.10;;;18.50;79.60;;;;;;4734624;30;20227;-81
2021/09/24 05:37:35;;;;;;;9.38;4.68;;;18.60;79.20;;;;;;4749442;30;20039;-81
2021/09/24 05:40:01;;;;;;;8.20;5.63;;;18.60;79.30;;;;;;4748665;30;20028;-82
2021/09/24 05:42:27;;;;;;;11.63;5.50;;;18.60;79.30;;;;;;4734061;30;20046;-81
2021/09/24 05:44:53;;;;;;;10.50;5.57;;;18.60;79.10;;;;;;4734002;30;20035;-82
2021/09/24 05:47:18;;;;;;;8.23;5.95;;;18.60;78.80;;;;;;4749302;30;20082;-81
2021/09/24 05:49:44;;;;;;;11.18;5.55;;;18.60;78.80;;;;;;4733915;30;20027;-81
2021/09/24 05:52:11;;;;;;;14.23;5.75;;;18.70;78.90;;;;;;4749315;30;20043;-81
2021/09/24 05:54:36;;;;;;;8.07;5.35;;;18.60;78.80;;;;;;4748221;30;20103;-81
2021/09/24 05:57:02;;;;;;;7.13;5.10;;;18.60;78.80;;;;;;4748370;30;20028;-81
2021/09/24 05:59:28;;;;;;;11.60;5.55;;;18.70;78.50;;;;;;4748760;30;20032;-82
2021/09/24 06:01:54;;;;;;;8.77;5.15;;;18.70;78.30;;;;;;4733837;30;20327;-81
2021/09/24 06:04:20;;;;;;;11.18;5.40;;;18.70;78.30;;;;;;4748400;30;20039;-81
2021/09/24 06:06:46;;;;;;;7.50;5.55;;;18.70;78.50;;;;;;4763874;30;20151;-81
2021/09/24 06:09:12;;;;;;;6.05;4.53;;;18.70;78.30;;;;;;4747764;30;20039;-82
2021/09/24 06:11:38;;;;;;;9.27;4.93;;;18.70;78.60;;;;;;4748422;30;20268;-81
2021/09/24 06:14:05;;;;;;;12.50;5.72;;;18.70;78.00;;;;;;4748563;30;20083;-81
2021/09/24 06:16:31;;;;;;;7.85;4.85;;;18.70;78.30;;;;;;4746212;30;20224;-82
2021/09/24 06:18:57;;;;;;;7.72;5.13;;;18.80;78.10;;;;;;4748329;30;20032;-82
2021/09/24 06:21:24;;;;;;;10.77;5.70;;;18.80;77.90;;;;;;4733503;30;20028;-82
2021/09/24 06:23:51;;;;;;;;;;;18.90;77.60;;;;;;4734459;30;20040;-82
2021/09/24 06:26:16;;;;;;;10.88;5.38;;;18.80;77.70;;;;;;4733814;30;19956;-81
2021/09/24 06:28:42;;;;;;;17.77;5.07;;;18.90;77.50;;;;;;4733344;30;20033;-81
2021/09/24 06:31:08;;;;;;;13.35;4.90;;;18.90;77.30;;;;;;4733371;30;20100;-82
2021/09/24 06:33:34;;;;;;;7.88;4.80;;;18.90;77.20;;;;;;4747656;30;20036;-83
2021/09/24 06:36:00;;;;;;;9.27;6.15;;;18.90;77.80;;;;;;4733157;30;20039;-82
2021/09/24 06:38:25;;;;;;;11.00;5.20;;;18.90;77.30;;;;;;4745160;30;20336;-82
2021/09/24 06:40:51;;;;;;;10.60;4.63;;;18.90;77.20;;;;;;4730522;30;20324;-82
2021/09/24 06:43:18;;;;;;;7.78;5.22;;;18.90;77.40;;;;;;4730860;30;20091;-82
2021/09/24 06:45:44;;;;;;;12.85;5.68;;;18.90;77.40;;;;;;4730966;30;20048;-82
2021/09/24 06:48:10;;;;;;;12.13;5.15;;;18.90;77.40;;;;;;4733667;30;20040;-81
2021/09/24 06:50:36;;;;;;;8.98;5.55;;;18.90;77.50;;;;;;4733638;30;20403;-81
2021/09/24 06:53:03;;;;;;;12.53;5.60;;;19.00;77.40;;;;;;4733609;30;20032;-82
2021/09/24 06:55:30;;;;;;;12.15;5.47;;;19.10;76.90;;;;;;4747758;30;20376;-82
2021/09/24 06:57:57;;;;;;;11.20;4.65;;;19.00;77.20;;;;;;4733382;30;20039;-82
2021/09/24 07:00:23;;;;;;;9.98;5.07;;;19.00;76.90;;;;;;4733595;30;20036;-82
2021/09/24 07:02:49;;;;;;;6.45;5.03;;;19.00;77.00;;;;;;4733011;30;20028;-82
2021/09/24 07:05:15;;;;;;;9.82;4.63;;;19.00;77.00;;;;;;4737116;30;20043;-82
2021/09/24 07:07:41;;;;;;;7.82;4.65;;;19.10;77.10;;;;;;4740398;30;20115;-82
2021/09/24 07:10:08;;;;;;;9.57;4.85;;;19.10;77.30;;;;;;4735173;30;20028;-82
2021/09/24 07:12:34;;;;;;;8.70;4.72;;;19.10;76.80;;;;;;4733129;30;20043;-82
2021/09/24 07:15:00;;;;;;;8.20;5.53;;;19.10;76.30;;;;;;4747721;30;20046;-82
2021/09/24 07:17:27;;;;;;;13.63;5.33;;;19.00;76.50;;;;;;4734689;30;20036;-82
2021/09/24 07:19:53;;;;;;;7.40;5.30;;;19.00;77.30;;;;;;4745783;30;20036;-82
2021/09/24 07:22:18;;;;;;;13.48;5.15;;;19.00;76.50;;;;;;4732865;30;20024;-81
2021/09/24 07:24:48;;;;;;;9.13;5.38;;;19.00;76.80;;;;;;4732534;30;20047;-81
2021/09/24 07:27:14;;;;;;;10.02;5.32;;;19.20;76.90;;;;;;4719282;30;20060;-81
2021/09/24 07:29:40;;;;;;;6.15;4.53;;;19.30;75.90;;;;;;4747466;30;20036;-81
2021/09/24 07:32:06;;;;;;;7.82;4.68;;;19.30;75.90;;;;;;4731205;30;20087;-81
2021/09/24 07:34:32;;;;;;;6.20;4.40;;;19.30;75.50;;;;;;4745202;30;20051;-81
2021/09/24 07:36:58;;;;;;;10.82;4.72;;;19.30;75.40;;;;;;4732109;30;20028;-81
2021/09/24 07:39:23;;;;;;;10.15;4.70;;;19.30;75.50;;;;;;4747541;30;20028;-81
2021/09/24 07:41:49;;;;;;;7.68;5.10;;;19.50;75.70;;;;;;4747553;30;20119;-81
2021/09/24 07:44:15;;;;;;;16.38;4.72;;;19.60;75.20;;;;;;4732876;30;20032;-81
2021/09/24 07:46:41;;;;;;;8.65;4.65;;;19.80;73.90;;;;;;4747380;30;20191;-82
2021/09/24 07:49:07;;;;;;;7.95;4.93;;;19.80;74.00;;;;;;4747543;30;20028;-81
2021/09/24 07:51:33;;;;;;;7.05;4.43;;;19.70;73.30;;;;;;4747182;30;20355;-82
2021/09/24 07:53:59;;;;;;;5.35;4.25;;;19.80;73.90;;;;;;4732733;30;20163;-82
2021/09/24 07:56:25;;;;;;;12.05;5.80;;;19.90;73.60;;;;;;4763431;30;20031;-81
2021/09/24 07:58:51;;;;;;;14.38;4.72;;;19.90;73.30;;;;;;4732552;30;20328;-83
2021/09/24 08:01:17;;;;;;;6.57;4.35;;;20.00;73.50;;;;;;4732349;30;20205;-82
2021/09/24 08:03:43;;;;;;;6.20;4.83;;;20.00;72.40;;;;;;4746569;30;20205;-82
2021/09/24 08:06:09;;;;;;;11.90;4.30;;;20.00;72.30;;;;;;4732521;30;20042;-81
2021/09/24 08:08:35;;;;;;;10.02;4.40;;;20.00;73.00;;;;;;4748978;30;20036;-83
2021/09/24 08:11:02;;;;;;;5.40;4.10;;;20.10;72.70;;;;;;4737608;30;20040;-82
2021/09/24 08:13:28;;;;;;;9.80;4.60;;;20.10;71.90;;;;;;4734121;30;20036;-80
2021/09/24 08:15:55;;;;;;;12.17;4.37;;;20.20;72.00;;;;;;4749232;30;20040;-81
2021/09/24 08:18:23;;;;;;;8.20;4.00;;;20.30;71.80;;;;;;4748436;30;20041;-81
2021/09/24 08:20:49;;;;;;;6.70;3.63;;;20.40;71.80;;;;;;4736782;30;20036;-81
2021/09/24 08:23:16;;;;;;;10.45;4.05;;;20.40;71.10;;;;;;4737110;30;20092;-81
2021/09/24 08:25:42;;;;;;;5.47;3.92;;;20.50;71.30;;;;;;4736286;30;20032;-82
2021/09/24 08:28:07;;;;;;;6.55;3.92;;;20.60;71.20;;;;;;4751447;30;20049;-81
2021/09/24 08:30:34;;;;;;;10.68;3.83;;;20.50;71.10;;;;;;4736406;30;20031;-82
2021/09/24 08:33:01;;;;;;;8.60;4.53;;;20.40;71.10;;;;;;4766649;30;20357;-82
2021/09/24 08:35:28;;;;;;;6.20;3.95;;;20.30;71.10;;;;;;4751330;30;20343;-82
2021/09/24 08:37:54;;;;;;;6.25;4.38;;;20.30;71.70;;;;;;4736807;30;20043;-82
2021/09/24 08:40:24;;;;;;;11.30;4.43;;;20.30;71.80;;;;;;4751229;30;20028;-82
2021/09/24 08:42:50;;;;;;;8.07;4.55;;;20.20;71.80;;;;;;4751159;30;20032;-82
2021/09/24 08:45:30;;;;;;;5.78;4.45;;;20.10;72.50;;;;;;4745889;30;20039;-81
2021/09/24 08:48:04;;;;;;;5.22;4.15;;;20.10;72.70;;;;;;4737135;30;20056;-82
2021/09/24 08:50:33;;;;;;;6.97;4.50;;;20.10;72.40;;;;;;4736411;30;20125;-82
2021/09/24 08:52:59;;;;;;;10.57;4.85;;;20.00;72.90;;;;;;4748283;30;20347;-81
2021/09/24 08:55:26;;;;;;;13.52;6.03;;;20.10;72.70;;;;;;4745681;30;20028;-82
2021/09/24 08:57:52;;;;;;;9.13;5.28;;;20.00;72.80;;;;;;4751337;30;20032;-81
2021/09/24 09:00:20;;;;;;;6.72;4.38;;;20.00;73.10;;;;;;4780918;30;20028;-81
2021/09/24 09:03:10;;;;;;;9.13;5.13;;;20.00;73.90;;;;;;4751296;30;20036;-81
2021/09/24 09:05:49;;;;;;;10.93;5.13;;;20.00;73.90;;;;;;4751605;30;20223;-81
2021/09/24 09:08:27;;;;;;;7.75;5.35;;;20.10;73.80;;;;;;4736844;30;20111;-81
2021/09/24 09:11:00;;;;;;;8.15;4.85;;;20.00;73.70;;;;;;4736739;30;20401;-82
2021/09/24 09:13:42;;;;;;;10.50;5.25;;;20.00;73.80;;;;;;4736979;30;20056;-81
2021/09/24 09:16:19;;;;;;;9.02;5.22;;;20.10;73.60;;;;;;4736648;30;20043;-82
2021/09/24 09:18:47;;;;;;;;;;;20.30;73.30;;;;;;4751110;30;20224;-82
2021/09/24 09:21:15;;;;;;;9.63;4.75;;;20.60;72.80;;;;;;4751148;30;20201;-82
2021/09/24 09:23:45;;;;;;;8.85;5.03;;;20.70;71.60;;;;;;4765713;30;20119;-81
2021/09/24 09:26:12;;;;;;;6.70;5.32;;;20.70;71.60;;;;;;4732840;30;20043;-81
2021/09/24 09:28:40;;;;;;;8.25;5.63;;;20.80;71.00;;;;;;4733364;30;20028;-81
2021/09/24 09:31:24;;;;;;;17.27;5.18;;;20.90;71.70;;;;;;4747520;30;20040;-81
2021/09/24 09:33:52;;;;;;;11.40;5.00;;;21.10;70.90;;;;;;4747619;30;20036;-81
2021/09/24 09:36:29;;;;;;;9.27;5.63;;;21.10;70.30;;;;;;4732802;30;20221;-80
2021/09/24 09:38:56;;;;;;;10.65;5.70;;;21.10;70.00;;;;;;4734035;30;20108;-81
2021/09/24 09:41:23;;;;;;;;;;;21.00;70.90;;;;;;4734316;30;20064;-81
2021/09/24 09:43:56;;;;;;;10.15;5.50;;;21.10;71.00;;;;;;4749612;30;19910;-81
2021/09/24 09:46:30;;;;;;;8.38;5.10;;;21.20;70.40;;;;;;4730435;30;20057;-81
2021/09/24 09:49:25;;;;;;;14.02;5.47;;;21.30;69.70;;;;;;4733305;30;20040;-80
2021/09/24 09:52:08;;;;;;;8.50;4.97;;;21.30;70.20;;;;;;4680459;30;20042;-80
2021/09/24 09:54:36;;;;;;;8.52;5.13;;;21.30;70.40;;;;;;4680735;30;20116;-80
2021/09/24 09:57:18;;;;;;;7.13;5.00;;;21.30;69.90;;;;;;4694867;30;20041;-80
2021/09/24 09:59:52;;;;;;;9.20;5.38;;;21.20;70.00;;;;;;4694784;30;20038;-80
2021/09/24 10:02:27;;;;;;;10.40;5.30;;;21.10;70.70;;;;;;4694584;30;20058;-80
2021/09/24 10:04:53;;;;;;;13.32;5.00;;;21.20;71.30;;;;;;4694584;30;20044;-80
2021/09/24 10:07:25;;;;;;;8.70;5.90;;;21.20;70.90;;;;;;4694342;30;20042;-80
2021/09/24 10:10:08;;;;;;;10.65;5.30;;;21.10;70.80;;;;;;4680006;30;20288;-80
2021/09/24 10:12:34;;;;;;;10.00;5.50;;;21.00;71.00;;;;;;4680020;30;20034;-79
2021/09/24 10:15:00;;;;;;;12.02;4.47;;;20.90;71.50;;;;;;4679630;30;20042;-80
2021/09/24 10:17:26;;;;;;;11.32;5.40;;;20.90;71.20;;;;;;4681262;30;20037;-80
2021/09/24 10:19:56;;;;;;;9.50;5.47;;;20.90;71.70;;;;;;4663315;30;20038;-79
2021/09/24 10:22:26;;;;;;;7.65;5.45;;;20.90;71.80;;;;;;4662922;30;20046;-80
2021/09/24 10:24:54;;;;;;;6.95;4.93;;;20.90;71.50;;;;;;4677171;30;20039;-80
2021/09/24 10:27:38;;;;;;;13.65;5.32;;;20.90;71.60;;;;;;4662653;30;20050;-80
2021/09/24 10:30:14;;;;;;;8.38;4.82;;;20.80;72.10;;;;;;4732649;30;20037;-80
2021/09/24 10:33:07;;;;;;;10.48;5.80;;;20.70;72.40;;;;;;4732775;30;20045;-81
2021/09/24 10:35:48;;;;;;;7.45;4.50;;;20.60;72.70;;;;;;4732148;30;20036;-81
2021/09/24 10:38:17;;;;;;;8.02;5.03;;;20.60;72.40;;;;;;4731922;30;20064;-80
2021/09/24 10:40:54;;;;;;;6.82;4.28;;;20.60;72.80;;;;;;4732429;30;20094;-81
2021/09/24 10:43:20;;;;;;;7.28;4.10;;;20.60;73.10;;;;;;4731834;30;20043;-80
2021/09/24 10:45:46;;;;;;;6.60;4.50;;;20.70;72.80;;;;;;4733315;30;20040;-80
2021/09/24 10:48:22;;;;;;;8.90;4.25;;;20.70;72.00;;;;;;4749678;30;20036;-81
2021/09/24 10:51:05;;;;;;;6.45;4.60;;;20.70;72.50;;;;;;4750356;30;20038;-80
2021/09/24 10:53:39;;;;;;;10.07;4.53;;;20.80;72.70;;;;;;4751037;30;20347;-81
2021/09/24 10:56:05;;;;;;;10.32;3.75;;;20.80;72.30;;;;;;4751271;30;20051;-81
2021/09/24 10:58:31;;;;;;;7.70;4.28;;;20.80;72.60;;;;;;4749805;30;20036;-81
2021/09/24 11:01:00;;;;;;;6.90;4.38;;;20.80;72.70;;;;;;4748554;30;20097;-82
2021/09/24 11:03:28;;;;;;;10.05;4.20;;;20.70;72.60;;;;;;4748806;30;20039;-82
2021/09/24 11:06:05;;;;;;;10.35;3.83;;;20.80;72.10;;;;;;4734407;30;20337;-81
2021/09/24 11:08:34;;;;;;;8.35;3.70;;;20.80;72.60;;;;;;4748618;30;20043;-82
2021/09/24 11:11:23;;;;;;;5.63;4.13;;;20.90;71.60;;;;;;4748872;30;20316;-82
2021/09/24 11:13:52;;;;;;;5.95;4.22;;;21.00;71.90;;;;;;4733544;30;20040;-83
2021/09/24 11:16:27;;;;;;;7.13;3.50;;;21.10;72.20;;;;;;4728717;30;20097;-82
2021/09/24 11:18:58;;;;;;;7.18;3.78;;;21.20;72.20;;;;;;4730629;30;20087;-82
2021/09/24 11:21:30;;;;;;;10.25;5.03;;;21.30;70.60;;;;;;4716388;30;20033;-81
2021/09/24 11:23:57;;;;;;;8.20;4.15;;;21.30;71.70;;;;;;4745773;30;20111;-82
2021/09/24 11:26:29;;;;;;;9.57;4.03;;;21.60;71.10;;;;;;4730498;30;20032;-82
2021/09/24 11:29:12;;;;;;;15.13;3.95;;;21.70;70.50;;;;;;4730306;30;20045;-81
2021/09/24 11:31:53;;;;;;;7.53;3.75;;;21.70;70.50;;;;;;4715776;30;20039;-81
2021/09/24 11:34:43;;;;;;;15.25;4.78;;;21.80;70.70;;;;;;4744443;30;20100;-81
2021/09/24 11:37:16;;;;;;;15.95;4.82;;;22.00;70.50;;;;;;4747625;30;20039;-81
2021/09/24 11:39:42;;;;;;;11.00;4.53;;;22.10;70.00;;;;;;4729189;30;20205;-82
2021/09/24 11:42:14;;;;;;;10.23;4.17;;;22.10;69.60;;;;;;4730147;30;20038;-82
2021/09/24 11:44:48;;;;;;;9.00;4.00;;;22.20;69.90;;;;;;4730804;30;20039;-82
2021/09/24 11:47:21;;;;;;;6.70;3.53;;;22.40;68.30;;;;;;4738779;30;20089;-81
2021/09/24 11:50:03;;;;;;;10.68;3.17;;;22.40;68.00;;;;;;4730240;30;20098;-81
2021/09/24 11:52:43;;;;;;;6.15;3.15;;;22.50;67.80;;;;;;4734730;30;20040;-81
2021/09/24 11:55:38;;;;;;;14.65;3.63;;;22.60;67.90;;;;;;4723752;30;20111;-81
2021/09/24 11:58:18;;;;;;;5.85;3.40;;;22.60;68.40;;;;;;4718838;30;20064;-81
2021/09/24 12:00:47;;;;;;;7.13;3.25;;;22.70;67.60;;;;;;4733372;30;20045;-81
2021/09/24 12:03:22;;;;;;;5.55;3.10;;;22.60;68.40;;;;;;4718823;30;20100;-80
2021/09/24 12:06:09;;;;;;;4.60;3.28;;;22.60;67.00;;;;;;4709749;30;20332;-80
2021/09/24 12:08:42;;;;;;;17.02;3.33;;;22.40;67.10;;;;;;4749606;30;20033;-83
2021/09/24 12:11:12;;;;;;;4.22;3.13;;;22.40;66.90;;;;;;4735306;30;20047;-81
2021/09/24 12:13:39;;;;;;;5.55;2.70;;;22.40;66.80;;;;;;4719847;30;20100;-81
2021/09/24 12:16:07;;;;;;;4.63;3.00;;;22.40;67.40;;;;;;4723570;30;20331;-82
2021/09/24 12:19:03;;;;;;;8.73;2.80;;;22.30;65.50;;;;;;4738159;30;20046;-83
2021/09/24 12:21:50;;;;;;;5.10;2.92;;;22.30;66.40;;;;;;4751938;30;20048;-82
2021/09/24 12:24:29;;;;;;;5.55;3.50;;;22.30;66.50;;;;;;4751453;30;20295;-82
2021/09/24 12:27:11;;;;;;;6.63;3.25;;;22.20;66.80;;;;;;4754019;30;20107;-82
2021/09/24 12:29:42;;;;;;;5.75;3.00;;;22.20;67.10;;;;;;4738673;30;20052;-80
2021/09/24 12:32:23;;;;;;;7.80;2.92;;;22.20;66.80;;;;;;4737101;30;20036;-82
2021/09/24 12:34:53;;;;;;;3.58;2.78;;;22.20;66.70;;;;;;4734370;30;20063;-81
2021/09/24 12:37:40;;;;;;;4.30;2.80;;;22.20;67.60;;;;;;4757252;30;20061;-82
2021/09/24 12:40:18;;;;;;;10.65;3.35;;;22.30;66.60;;;;;;4745219;30;20077;-82
2021/09/24 12:42:53;;;;;;;6.32;3.90;;;22.30;66.00;;;;;;4735969;30;20350;-81
2021/09/24 12:45:25;;;;;;;5.80;3.28;;;22.40;66.60;;;;;;4751317;30;20064;-80
2021/09/24 12:47:52;;;;;;;4.97;3.25;;;22.50;65.70;;;;;;4721723;30;20052;-82
2021/09/24 12:50:18;;;;;;;5.07;3.40;;;22.70;66.30;;;;;;4723167;30;20044;-81
2021/09/24 12:52:45;;;;;;;6.07;3.03;;;22.60;65.30;;;;;;4738065;30;20060;-81
2021/09/24 12:55:12;;;;;;;4.93;3.25;;;22.60;65.20;;;;;;4736664;30;20051;-81
2021/09/24 12:57:38;;;;;;;;;;;22.50;65.70;;;;;;4751637;30;20024;-81
2021/09/24 13:00:10;;;;;;;4.33;2.67;;;22.50;66.00;;;;;;4749046;30;20122;-82
2021/09/24 13:02:36;;;;;;;3.60;3.22;;;22.50;66.50;;;;;;4752574;30;20104;-80
2021/09/24 13:05:04;;;;;;;5.18;2.92;;;22.50;66.30;;;;;;4750267;30;20029;-80
2021/09/24 13:07:30;;;;;;;5.95;3.05;;;22.50;66.40;;;;;;4736282;30;20064;-83
2021/09/24 13:10:15;;;;;;;5.20;3.27;;;22.50;66.70;;;;;;4722832;30;20096;-80
2021/09/24 13:12:42;;;;;;;7.55;3.13;;;22.50;67.30;;;;;;4737698;30;20028;-80
2021/09/24 13:15:13;;;;;;;4.43;2.85;;;22.40;67.20;;;;;;4722748;30;20036;-83
2021/09/24 13:17:39;;;;;;;4.93;2.88;;;22.40;66.80;;;;;;4752436;30;20339;-81
2021/09/24 13:20:08;;;;;;;5.07;2.63;;;22.40;67.00;;;;;;4749365;30;20092;-83
2021/09/24 13:22:35;;;;;;;4.32;2.80;;;22.40;67.10;;;;;;4739627;30;20031;-83
2021/09/24 13:25:04;;;;;;;;;;;22.40;67.10;;;;;;4738638;30;20104;-83
2021/09/24 13:27:30;;;;;;;11.70;3.10;;;22.30;67.60;;;;;;4743646;30;19910;-82
2021/09/24 13:29:56;;;;;;;4.68;2.92;;;22.40;67.40;;;;;;4744014;30;20047;-82
2021/09/24 13:32:22;;;;;;;7.45;3.33;;;22.40;67.40;;;;;;4735964;30;20035;-83
2021/09/24 13:34:47;;;;;;;4.22;3.20;;;22.40;68.00;;;;;;4750065;30;20074;-81
2021/09/24 13:37:13;;;;;;;4.72;3.13;;;22.30;65.90;;;;;;4752565;30;20035;-81
2021/09/24 13:39:40;;;;;;;6.35;3.17;;;22.40;67.40;;;;;;4737073;30;20024;-82
2021/09/24 13:42:06;;;;;;;3.85;2.80;;;22.30;67.50;;;;;;4738034;30;20286;-82
2021/09/24 13:44:33;;;;;;;8.73;3.45;;;22.30;67.90;;;;;;4752632;30;20042;-83
2021/09/24 13:46:59;;;;;;;3.63;2.80;;;22.20;68.10;;;;;;4723294;30;20063;-82
2021/09/24 13:49:25;;;;;;;4.25;3.08;;;22.20;68.00;;;;;;4737410;30;20043;-82
2021/09/24 13:51:51;;;;;;;9.32;3.33;;;22.20;67.70;;;;;;4751334;30;20287;-82
2021/09/24 13:54:17;;;;;;;5.87;2.97;;;22.20;68.10;;;;;;4747031;30;20032;-83
2021/09/24 13:56:44;;;;;;;4.05;2.72;;;22.10;67.70;;;;;;4749007;30;20024;-82
2021/09/24 13:59:10;;;;;;;6.32;3.20;;;22.00;68.40;;;;;;4747714;30;20060;-81
2021/09/24 14:01:37;;;;;;;4.47;3.22;;;22.00;68.70;;;;;;4732433;30;20279;-82
2021/09/24 14:04:03;;;;;;;3.60;2.70;;;22.00;68.80;;;;;;4753217;30;20055;-82
2021/09/24 14:06:29;;;;;;;5.13;2.50;;;22.00;68.80;;;;;;4749098;30;20036;-81
2021/09/24 14:08:55;;;;;;;8.30;3.20;;;22.00;69.10;;;;;;4735565;30;20039;-82
2021/09/24 14:11:21;;;;;;;7.38;3.13;;;22.00;69.00;;;;;;4735653;30;20111;-82
2021/09/24 14:13:47;;;;;;;4.90;2.92;;;22.00;69.00;;;;;;4750028;30;20086;-81
2021/09/24 14:16:15;;;;;;;4.68;3.28;;;22.00;68.40;;;;;;4734969;30;20040;-82
2021/09/24 14:18:42;;;;;;;4.78;3.10;;;21.90;68.80;;;;;;4736084;30;20268;-82
2021/09/24 14:21:08;;;;;;;4.82;3.00;;;21.90;68.90;;;;;;4736459;30;20058;-82
2021/09/24 14:23:33;;;;;;;11.15;3.47;;;22.00;69.30;;;;;;4736215;30;20040;-82
2021/09/24 14:25:59;;;;;;;8.20;3.28;;;22.00;69.30;;;;;;4736095;30;20036;-82
2021/09/24 14:28:25;;;;;;;5.13;3.13;;;21.90;68.80;;;;;;4735778;30;20024;-82
2021/09/24 14:30:51;;;;;;;5.18;3.72;;;21.90;69.10;;;;;;4735912;30;20067;-82
2021/09/24 14:33:18;;;;;;;5.13;3.03;;;21.90;69.10;;;;;;4748414;30;20024;-81
2021/09/24 14:35:45;;;;;;;6.00;2.70;;;21.90;69.00;;;;;;4735504;30;20440;-82
2021/09/24 14:38:12;;;;;;;5.97;3.15;;;21.90;68.80;;;;;;4734855;30;20035;-82
2021/09/24 14:40:42;;;;;;;4.93;3.25;;;21.80;68.50;;;;;;4749659;30;20031;-81
2021/09/24 14:43:09;;;;;;;8.95;2.90;;;21.80;69.10;;;;;;4734192;30;20032;-81
2021/09/24 14:45:36;;;;;;;8.20;3.67;;;21.90;69.00;;;;;;4732185;30;20243;-82
2021/09/24 14:48:02;;;;;;;4.93;2.72;;;21.80;68.90;;;;;;4731703;30;20359;-82
2021/09/24 14:50:28;;;;;;;5.07;2.60;;;21.90;69.40;;;;;;4731822;30;20039;-81
2021/09/24 14:52:54;;;;;;;5.07;2.70;;;21.90;69.50;;;;;;4731842;30;20320;-81
2021/09/24 14:55:20;;;;;;;4.60;2.78;;;21.80;69.50;;;;;;4747376;30;20107;-79
2021/09/24 14:57:46;;;;;;;5.40;3.10;;;21.80;69.50;;;;;;4746396;30;20082;-81
2021/09/24 15:00:13;;;;;;;5.07;2.70;;;21.80;69.40;;;;;;4731413;30;20052;-82
2021/09/24 15:02:39;;;;;;;9.20;3.58;;;21.70;69.50;;;;;;4731484;30;20232;-82
2021/09/24 15:05:05;;;;;;;4.50;3.33;;;21.70;69.70;;;;;;4731589;30;20088;-81
2021/09/24 15:07:31;;;;;;;3.97;3.03;;;21.70;69.90;;;;;;4731647;30;20055;-82
2021/09/24 15:09:57;;;;;;;4.43;3.38;;;21.70;69.80;;;;;;4745890;30;20296;-82
2021/09/24 15:12:22;;;;;;;4.60;2.75;;;21.70;69.90;;;;;;4731687;30;20040;-82
2021/09/24 15:14:48;;;;;;;3.42;2.58;;;21.70;69.90;;;;;;4731167;30;20064;-82
2021/09/24 15:17:14;;;;;;;6.63;2.95;;;21.60;69.80;;;;;;4731452;30;20209;-81
2021/09/24 15:19:40;;;;;;;7.20;3.35;;;21.60;70.70;;;;;;4731475;30;20028;-81
2021/09/24 15:22:06;;;;;;;5.03;2.50;;;21.60;70.40;;;;;;4745942;30;20040;-81
2021/09/24 15:24:32;;;;;;;3.92;3.20;;;21.60;70.60;;;;;;4745997;30;20243;-82
2021/09/24 15:26:58;;;;;;;7.75;3.08;;;21.70;70.40;;;;;;4745862;30;20055;-82
2021/09/24 15:29:24;;;;;;;3.47;2.70;;;21.70;70.50;;;;;;4734694;30;20045;-81
2021/09/24 15:31:50;;;;;;;9.95;3.10;;;21.70;70.10;;;;;;4735055;30;20033;-82
2021/09/24 15:34:16;;;;;;;8.98;3.08;;;21.80;70.20;;;;;;4734505;30;20039;-81
2021/09/24 15:36:42;;;;;;;4.50;2.45;;;21.70;69.80;;;;;;4749472;30;20052;-81
2021/09/24 15:39:14;;;;;;;8.43;2.40;;;21.70;69.10;;;;;;4734871;30;20029;-81